Time;durP1;ratioP1;P1;durP2;ratioP2;P2;SDS_P1;SDS_P2;PMS_P1;PMS_P2;Temp;Humidity;BMP_temperature;BMP_pressure;BME280_temperature;BME280_humidity;BME280_pressure;Samples;Min_cycle;Max_cycle;Signal;HPM_P1;HPM_P2
2023/10/19 00:00:55;;;;;;;2.05;1.83;;;;;;;5.98;82.93;96593.97;5134964;27;20404;-62
2023/10/19 00:03:24;;;;;;;3.90;2.15;;;;;;;5.92;82.67;96594.09;5134884;27;20126;-62
2023/10/19 00:05:56;;;;;;;4.65;1.88;;;;;;;5.93;82.64;96595.81;5134780;27;20476;-62
2023/10/19 00:08:23;;;;;;;3.05;1.75;;;;;;;5.89;82.36;96586.34;5134809;27;20043;-61
2023/10/19 00:11:02;;;;;;;6.57;1.60;;;;;;;5.84;81.68;96590.78;5134636;27;20058;-62
2023/10/19 00:13:31;;;;;;;2.92;2.13;;;;;;;5.82;82.29;96589.06;5134709;27;20051;-62
2023/10/19 00:15:57;;;;;;;3.85;2.22;;;;;;;5.87;83.99;96580.34;5134762;27;20480;-62
2023/10/19 00:18:25;;;;;;;4.10;2.10;;;;;;;5.81;83.21;96583.94;5134675;27;20058;-62
2023/10/19 00:20:52;;;;;;;5.32;2.38;;;;;;;5.71;83.17;96579.75;5134662;27;20047;-62
2023/10/19 00:23:28;;;;;;;3.15;2.00;;;;;;;5.69;83.62;96579.81;5134545;27;20070;-63
2023/10/19 00:25:57;;;;;;;2.22;2.03;;;;;;;5.61;83.76;96577.34;5134647;27;20047;-63
2023/10/19 00:28:26;;;;;;;7.88;2.88;;;;;;;5.59;84.12;96575.63;5134580;27;20051;-61
2023/10/19 00:30:59;;;;;;;5.45;2.60;;;;;;;5.55;84.17;96575.72;5134215;27;20046;-63
2023/10/19 00:33:28;;;;;;;2.70;1.90;;;;;;;5.56;84.06;96568.78;5134219;27;20068;-61
2023/10/19 00:36:00;;;;;;;4.60;2.60;;;;;;;5.56;83.35;96563.56;5134317;27;20079;-63
2023/10/19 00:38:41;;;;;;;6.28;2.15;;;;;;;5.53;83.12;96569.69;5134287;27;20051;-62
2023/10/19 00:41:13;;;;;;;3.17;2.17;;;;;;;5.52;82.75;96561.94;5134296;27;20126;-62
2023/10/19 00:43:44;;;;;;;7.13;2.13;;;;;;;5.46;83.24;96564.63;5134172;27;20047;-62
2023/10/19 00:46:20;;;;;;;3.22;2.25;;;;;;;5.45;83.55;96561.19;5134292;27;20511;-63
2023/10/19 00:48:50;;;;;;;9.50;2.08;;;;;;;5.48;82.96;96553.31;5134186;27;20043;-62
2023/10/19 00:51:40;;;;;;;4.65;2.03;;;;;;;5.44;82.95;96559.47;5134136;27;20055;-62
2023/10/19 00:54:12;;;;;;;4.47;2.00;;;;;;;5.41;83.38;96556.91;5134186;27;20047;-61
2023/10/19 00:56:45;;;;;;;4.38;2.15;;;;;;;5.45;82.87;96553.41;5133815;27;20043;-61
2023/10/19 00:59:14;;;;;;;4.28;2.03;;;;;;;5.44;82.66;96549.94;5133971;28;20177;-63
2023/10/19 01:01:45;;;;;;;2.88;2.08;;;;;;;5.40;81.97;96555.22;5133999;27;20043;-63
2023/10/19 01:04:14;;;;;;;2.45;2.03;;;;;;;5.36;81.99;96544.00;5133972;27;20054;-61
2023/10/19 01:06:44;;;;;;;7.50;2.20;;;;;;;5.31;82.08;96543.25;5133976;27;20100;-63
2023/10/19 01:09:14;;;;;;;3.67;2.13;;;;;;;5.33;83.16;96538.91;5134099;27;20093;-62
2023/10/19 01:11:45;;;;;;;4.65;2.55;;;;;;;5.33;82.99;96538.91;5133860;28;20083;-62
2023/10/19 01:14:23;;;;;;;8.10;4.30;;;;;;;5.18;83.09;96522.69;5133840;28;20043;-63
2023/10/19 01:16:51;;;;;;;3.33;2.65;;;;;;;5.26;83.15;96540.72;5133848;28;20047;-62
2023/10/19 01:19:23;;;;;;;8.52;3.42;;;;;;;5.24;83.50;96533.88;5133930;28;20134;-62
2023/10/19 01:21:53;;;;;;;4.95;3.40;;;;;;;5.25;83.20;96538.16;5133805;27;20050;-62
2023/10/19 01:24:33;;;;;;;5.13;2.37;;;;;;;5.21;83.21;96537.34;5133772;28;20047;-61
2023/10/19 01:27:01;;;;;;;4.00;2.25;;;;;;;5.22;82.88;96543.41;5133883;27;20048;-62
2023/10/19 01:29:31;;;;;;;7.00;2.90;;;;;;;5.20;82.56;96532.22;5133798;28;20043;-62
2023/10/19 01:32:15;;;;;;;6.90;3.42;;;;;;;5.21;82.71;96533.91;5133547;28;20047;-61
2023/10/19 01:34:43;;;;;;;3.40;2.70;;;;;;;5.21;82.68;96542.53;5133716;27;20065;-63
2023/10/19 01:37:12;;;;;;;5.88;3.15;;;;;;;5.22;82.50;96541.69;5133662;28;20039;-61
2023/10/19 01:39:42;;;;;;;4.40;2.90;;;;;;;5.17;81.80;96530.50;5133684;27;20049;-63
2023/10/19 01:42:08;;;;;;;3.90;2.50;;;;;;;5.22;81.27;96535.63;5133791;27;20476;-63
2023/10/19 01:44:36;;;;;;;5.15;2.58;;;;;;;5.18;81.53;96534.84;5133573;28;20488;-62
2023/10/19 01:47:05;;;;;;;5.13;3.00;;;;;;;5.18;81.47;96540.03;5133737;28;20039;-62
2023/10/19 01:49:32;;;;;;;4.70;2.60;;;;;;;5.16;81.98;96539.19;5133487;28;20035;-62
2023/10/19 01:52:00;;;;;;;4.50;2.42;;;;;;;5.16;82.26;96537.44;5133498;28;20100;-62
2023/10/19 01:54:26;;;;;;;3.05;2.22;;;;;;;5.15;82.81;96521.91;5133449;28;20092;-62
2023/10/19 01:56:56;;;;;;;4.47;2.33;;;;;;;5.14;82.71;96530.56;5133423;28;20043;-63
2023/10/19 01:59:27;;;;;;;7.63;2.42;;;;;;;5.13;82.22;96540.09;5133442;28;20488;-61
2023/10/19 02:01:54;;;;;;;2.83;2.22;;;;;;;5.14;81.84;96530.56;5133550;28;20412;-61
2023/10/19 02:04:21;;;;;;;3.38;2.55;;;;;;;5.12;82.64;96529.75;5133412;28;20484;-63
2023/10/19 02:06:51;;;;;;;5.60;2.40;;;;;;;5.10;82.45;96531.50;5133436;27;20044;-62
2023/10/19 02:09:21;;;;;;;2.37;2.17;;;;;;;5.06;82.61;96518.56;5134062;27;20043;-63
2023/10/19 02:11:50;;;;;;;2.95;2.45;;;;;;;5.03;82.63;96523.81;5136917;27;20356;-62
2023/10/19 02:14:18;;;;;;;5.65;2.80;;;;;;;5.03;82.75;96525.56;5137083;27;20039;-63
2023/10/19 02:16:50;;;;;;;2.80;2.50;;;;;;;5.02;82.72;96532.47;5137032;27;20074;-63
2023/10/19 02:19:17;;;;;;;3.13;2.22;;;;;;;5.05;82.74;96534.16;5136900;27;20057;-62
2023/10/19 02:21:47;;;;;;;4.53;3.22;;;;;;;5.05;82.66;96526.38;5136846;27;20450;-62
2023/10/19 02:24:14;;;;;;;2.92;2.40;;;;;;;5.06;82.39;96520.34;5136909;27;20047;-62
2023/10/19 02:26:41;;;;;;;3.30;2.33;;;;;;;5.07;82.02;96527.22;5136723;27;20043;-62
2023/10/19 02:29:09;;;;;;;2.45;1.92;;;;;;;5.02;81.63;96522.09;5136829;27;20418;-62
2023/10/19 02:31:39;;;;;;;3.50;2.30;;;;;;;5.03;81.76;96528.16;5136647;27;20051;-62
2023/10/19 02:34:07;;;;;;;2.83;2.03;;;;;;;5.02;81.44;96529.00;5136635;27;20043;-61
2023/10/19 02:36:36;;;;;;;4.85;2.38;;;;;;;5.01;82.19;96530.78;5136602;27;20126;-63
2023/10/19 02:39:07;;;;;;;5.05;2.53;;;;;;;4.94;81.79;96526.56;5136649;27;20058;-63
2023/10/19 02:41:36;;;;;;;3.53;2.03;;;;;;;4.90;81.75;96536.13;5136461;27;20433;-63
2023/10/19 02:44:07;;;;;;;3.30;2.13;;;;;;;4.87;82.19;96525.78;5136544;27;20078;-62
2023/10/19 02:46:34;;;;;;;3.45;2.20;;;;;;;4.82;82.83;96527.63;5136627;27;20507;-63
2023/10/19 02:49:03;;;;;;;3.75;2.33;;;;;;;4.81;82.83;96523.28;5136377;27;20090;-62
2023/10/19 02:51:30;;;;;;;4.43;2.67;;;;;;;4.83;83.53;96524.13;5136209;27;20400;-62
2023/10/19 02:53:57;;;;;;;4.78;3.38;;;;;;;4.83;83.84;96524.13;5136210;27;20043;-62
2023/10/19 02:56:25;;;;;;;3.17;2.33;;;;;;;4.83;84.03;96511.19;5136217;27;20047;-62
2023/10/19 02:58:52;;;;;;;6.25;2.63;;;;;;;4.84;83.90;96512.88;5136202;27;20054;-61
2023/10/19 03:01:22;;;;;;;5.22;2.63;;;;;;;4.78;84.47;96513.84;5136115;27;20400;-62
2023/10/19 03:03:53;;;;;;;3.45;2.35;;;;;;;4.81;84.59;96512.91;5136068;27;20050;-63
2023/10/19 03:06:22;;;;;;;2.53;2.22;;;;;;;4.83;83.84;96518.94;5135995;27;20050;-62
2023/10/19 03:08:57;;;;;;;2.00;1.75;;;;;;;4.84;83.48;96512.88;5135883;27;20429;-62
2023/10/19 03:11:23;;;;;;;2.33;1.95;;;;;;;4.84;83.66;96512.03;5135864;27;20042;-62
2023/10/19 03:13:51;;;;;;;4.45;2.28;;;;;;;4.79;83.71;96520.72;5135865;27;20106;-62
2023/10/19 03:16:17;;;;;;;5.05;2.13;;;;;;;4.72;84.17;96518.28;5135807;27;20055;-63
2023/10/19 03:18:45;;;;;;;3.33;2.45;;;;;;;4.76;83.54;96525.94;5135857;27;20083;-62
2023/10/19 03:21:11;;;;;;;4.53;1.95;;;;;;;4.77;82.60;96524.22;5135192;27;20055;-63
2023/10/19 03:23:40;;;;;;;3.83;1.75;;;;;;;4.73;82.51;96531.19;5135594;27;20078;-62
2023/10/19 03:28:54;;;;;;;8.38;2.05;;;;;;;4.73;81.74;96520.81;5131915;27;20135;-62
2023/10/19 03:31:25;;;;;;;7.30;2.20;;;;;;;4.70;81.12;96523.47;5135389;27;20496;-61
2023/10/19 03:33:55;;;;;;;2.35;1.65;;;;;;;4.65;82.00;96526.13;5135349;27;20055;-63
2023/10/19 03:36:23;;;;;;;2.95;2.10;;;;;;;4.64;83.36;96526.16;5135453;27;20043;-63
2023/10/19 03:38:53;;;;;;;3.72;1.85;;;;;;;4.55;84.11;96517.63;5135392;27;20103;-63
2023/10/19 03:41:21;;;;;;;2.53;1.90;;;;;;;4.55;84.22;96516.78;5135336;27;20130;-62
2023/10/19 03:43:51;;;;;;;2.47;1.98;;;;;;;4.49;84.15;96522.88;5135359;27;20043;-62
2023/10/19 03:46:28;;;;;;;3.78;2.33;;;;;;;4.48;84.49;96518.59;5135365;27;20079;-62
2023/10/19 03:48:59;;;;;;;3.28;2.20;;;;;;;4.49;85.01;96520.28;5135168;27;20099;-63
2023/10/19 03:51:27;;;;;;;4.47;2.15;;;;;;;4.51;85.23;96518.53;5135261;27;20062;-62
2023/10/19 03:54:01;;;;;;;3.35;2.05;;;;;;;4.50;85.09;96515.97;5134985;27;20043;-63
2023/10/19 03:56:32;;;;;;;4.63;1.98;;;;;;;4.51;84.88;96513.34;5135048;27;20078;-62
2023/10/19 03:59:00;;;;;;;3.50;2.15;;;;;;;4.53;84.70;96509.03;5135151;27;20071;-63
2023/10/19 04:01:29;;;;;;;2.40;2.00;;;;;;;4.55;83.70;96516.78;5134955;27;20051;-62
2023/10/19 04:03:58;;;;;;;2.42;2.00;;;;;;;4.53;83.86;96508.16;5134727;27;20045;-61
2023/10/19 04:06:27;;;;;;;3.08;1.90;;;;;;;4.55;84.04;96507.25;5134829;27;20054;-63
2023/10/19 04:08:56;;;;;;;4.25;1.92;;;;;;;4.55;84.20;96504.66;5134803;27;20135;-62
2023/10/19 04:11:23;;;;;;;2.40;2.20;;;;;;;4.54;84.67;96497.78;5134761;27;20047;-63
2023/10/19 04:13:54;;;;;;;3.25;2.45;;;;;;;4.51;84.39;96500.41;5134617;27;20043;-63
2023/10/19 04:16:21;;;;;;;5.07;2.30;;;;;;;4.44;84.56;96498.78;5134763;27;20043;-62
2023/10/19 04:18:49;;;;;;;3.45;2.00;;;;;;;4.43;84.89;96505.69;5134724;27;20049;-62
2023/10/19 04:21:17;;;;;;;2.22;1.95;;;;;;;4.43;84.76;96504.84;5134476;27;20050;-63
2023/10/19 04:23:46;;;;;;;3.08;1.98;;;;;;;4.47;84.06;96503.94;5134561;27;20051;-62
2023/10/19 04:26:18;;;;;;;2.42;1.77;;;;;;;4.45;84.41;96504.84;5134600;27;20047;-62
2023/10/19 04:28:49;;;;;;;5.85;2.10;;;;;;;4.49;84.06;96502.16;5134451;27;20145;-63
2023/10/19 04:31:17;;;;;;;3.08;2.25;;;;;;;4.52;84.25;96507.28;5134208;27;20143;-62
2023/10/19 04:33:47;;;;;;;2.50;1.70;;;;;;;4.54;83.89;96515.91;5133664;27;20519;-62
2023/10/19 04:36:21;;;;;;;2.33;1.85;;;;;;;4.57;83.28;96511.56;5134253;27;20047;-63
2023/10/19 04:38:48;;;;;;;3.83;1.73;;;;;;;4.57;83.09;96519.34;5134310;27;20488;-62
2023/10/19 04:41:16;;;;;;;3.47;2.47;;;;;;;4.59;82.75;96517.56;5134207;27;20051;-63
2023/10/19 04:43:49;;;;;;;2.47;1.85;;;;;;;4.62;81.54;96521.00;5134167;27;20457;-62
2023/10/19 04:46:18;;;;;;;4.25;1.75;;;;;;;4.58;81.59;96519.31;5134024;27;20051;-62
2023/10/19 04:48:46;;;;;;;2.25;1.95;;;;;;;4.58;82.00;96511.56;5134302;27;20126;-63
2023/10/19 04:51:14;;;;;;;5.13;2.50;;;;;;;4.62;82.57;96518.41;5134204;27;20556;-62
2023/10/19 04:53:42;;;;;;;2.92;2.35;;;;;;;4.69;82.49;96524.34;5133871;27;20069;-63
2023/10/19 04:56:09;;;;;;;2.50;2.17;;;;;;;4.71;82.37;96516.53;5134133;27;20050;-63
2023/10/19 04:58:38;;;;;;;3.70;2.10;;;;;;;4.80;82.39;96511.22;5133945;28;20062;-61
2023/10/19 05:01:06;;;;;;;2.55;2.05;;;;;;;4.89;81.92;96511.09;5134120;27;20477;-63
2023/10/19 05:03:34;;;;;;;5.60;2.55;;;;;;;4.93;82.39;96506.69;5134197;27;20055;-63
2023/10/19 05:06:02;;;;;;;5.10;2.50;;;;;;;5.02;82.55;96503.94;5133979;27;20051;-63
2023/10/19 05:08:30;;;;;;;2.78;2.08;;;;;;;5.10;82.28;96513.34;5134018;27;20070;-62
2023/10/19 05:10:59;;;;;;;5.95;2.30;;;;;;;5.16;81.96;96511.53;5134011;28;20047;-62
2023/10/19 05:13:26;;;;;;;5.97;2.58;;;;;;;5.30;82.08;96519.03;5133870;28;20571;-63
2023/10/19 05:15:58;;;;;;;3.28;2.97;;;;;;;5.40;81.95;96521.47;5133960;27;20050;-63
2023/10/19 05:18:27;;;;;;;4.43;2.40;;;;;;;5.74;82.24;96518.25;5133912;27;20047;-63
2023/10/19 05:20:56;;;;;;;2.97;2.22;;;;;;;6.18;80.57;96523.47;5133594;27;20104;-62
2023/10/19 05:23:25;;;;;;;3.08;2.22;;;;;;;6.75;77.98;96530.09;5133812;27;20512;-62
2023/10/19 05:25:53;;;;;;;2.55;2.28;;;;;;;7.26;76.29;96531.50;5133926;27;20050;-62
2023/10/19 05:28:21;;;;;;;3.17;2.17;;;;;;;7.82;72.79;96523.97;5133752;28;20123;-62
2023/10/19 05:30:50;;;;;;;3.50;2.00;;;;;;;8.54;70.39;96527.19;5133742;27;20079;-62
2023/10/19 05:33:20;;;;;;;3.45;2.08;;;;;;;9.48;67.28;96528.56;5133422;28;20139;-63
2023/10/19 05:35:48;;;;;;;4.18;2.35;;;;;;;10.45;63.74;96542.63;5133745;27;20043;-62
2023/10/19 05:38:16;;;;;;;3.38;1.90;;;;;;;11.31;60.51;96553.28;5133884;27;20047;-62
2023/10/19 05:40:45;;;;;;;2.20;1.88;;;;;;;11.93;58.46;96547.25;5133760;27;20043;-63
2023/10/19 05:43:12;;;;;;;3.03;2.15;;;;;;;12.64;56.49;96552.88;5134263;27;20055;-63
2023/10/19 05:45:39;;;;;;;5.15;2.13;;;;;;;13.52;55.26;96547.88;5137426;27;20481;-63
2023/10/19 05:48:07;;;;;;;4.30;1.70;;;;;;;14.70;52.49;96555.91;5137619;27;20043;-62
2023/10/19 05:50:37;;;;;;;3.90;1.88;;;;;;;15.64;49.40;96556.84;5137540;27;20101;-63
2023/10/19 05:53:05;;;;;;;2.95;2.17;;;;;;;16.65;47.92;96563.19;5137441;27;20054;-62
2023/10/19 05:55:33;;;;;;;8.82;3.20;;;;;;;17.49;45.91;96553.59;5137589;27;20077;-61
2023/10/19 05:58:01;;;;;;;6.22;3.58;;;;;;;18.06;45.11;96556.84;5137513;27;20043;-63
2023/10/19 06:00:29;;;;;;;2.78;2.15;;;;;;;18.70;43.63;96563.09;5137289;27;20079;-64
2023/10/19 06:02:57;;;;;;;5.55;1.85;;;;;;;19.37;41.84;96568.97;5137288;27;20091;-62
2023/10/19 06:05:24;;;;;;;3.88;1.88;;;;;;;20.11;39.83;96572.41;5137116;27;20130;-62
2023/10/19 06:07:53;;;;;;;2.17;1.83;;;;;;;20.64;38.26;96565.69;5137112;27;20042;-63
2023/10/19 06:10:22;;;;;;;2.15;1.70;;;;;;;21.34;37.32;96564.66;5137238;27;20071;-63
2023/10/19 06:12:50;;;;;;;3.28;1.40;;;;;;;22.05;36.15;96565.97;5136936;27;20410;-62
2023/10/19 06:15:20;;;;;;;5.60;2.20;;;;;;;22.69;35.29;96567.72;5137065;27;20518;-63
2023/10/19 06:17:49;;;;;;;4.63;2.25;;;;;;;23.17;34.76;96574.19;5137033;27;20049;-60
2023/10/19 06:20:26;;;;;;;3.90;2.47;;;;;;;23.45;34.20;96565.56;5137046;27;20054;-64
2023/10/19 06:22:56;;;;;;;3.45;2.10;;;;;;;23.72;34.39;96566.72;5136932;27;20087;-64
2023/10/19 06:25:25;;;;;;;4.28;2.35;;;;;;;24.39;33.57;96571.28;5136912;27;20088;-61
2023/10/19 06:27:56;;;;;;;4.75;1.92;;;;;;;24.96;32.25;96562.34;5136816;27;20047;-62
2023/10/19 06:30:24;;;;;;;3.90;1.70;;;;;;;25.61;31.26;96567.75;5136821;27;20043;-61
2023/10/19 06:32:55;;;;;;;3.65;1.92;;;;;;;26.09;30.24;96556.75;5136389;27;20053;-62
2023/10/19 06:35:23;;;;;;;2.90;1.73;;;;;;;26.15;30.58;96566.03;5136734;27;20085;-63
2023/10/19 06:37:50;;;;;;;2.38;2.05;;;;;;;26.14;29.83;96561.66;5136551;27;20130;-64
2023/10/19 06:40:20;;;;;;;5.38;1.92;;;;;;;25.94;30.44;96560.00;5136566;27;20072;-62
2023/10/19 06:42:49;;;;;;;3.85;1.92;;;;;;;25.76;30.73;96552.00;5136543;27;20047;-61
2023/10/19 06:45:18;;;;;;;5.45;2.30;;;;;;;25.32;31.99;96552.72;5136465;27;20130;-63
2023/10/19 06:47:47;;;;;;;4.13;2.22;;;;;;;25.25;32.23;96560.50;5136479;27;20122;-63
2023/10/19 06:50:16;;;;;;;5.38;2.53;;;;;;;25.05;32.90;96551.75;5136344;27;20123;-64
2023/10/19 06:52:44;;;;;;;4.50;1.95;;;;;;;25.50;32.95;96555.41;5136386;27;20055;-62
2023/10/19 06:55:14;;;;;;;5.90;3.03;;;;;;;25.85;32.79;96559.09;5135267;27;20409;-62
2023/10/19 06:57:44;;;;;;;4.87;2.57;;;;;;;25.97;32.36;96556.16;5136310;27;20040;-62
2023/10/19 07:00:15;;;;;;;3.65;2.30;;;;;;;26.03;32.51;96558.22;5136309;27;20271;-63
2023/10/19 07:02:44;;;;;;;4.10;2.90;;;;;;;26.00;32.77;96550.50;5136090;27;20126;-62
2023/10/19 07:05:11;;;;;;;3.63;2.70;;;;;;;26.00;32.84;96553.19;5136053;27;20480;-62
2023/10/19 07:07:41;;;;;;;4.93;3.08;;;;;;;25.86;33.19;96555.41;5136060;27;20051;-64
2023/10/19 07:10:11;;;;;;;6.55;3.22;;;;;;;25.39;34.11;96553.81;5136102;27;20051;-60
2023/10/19 07:12:40;;;;;;;6.05;3.10;;;;;;;24.95;34.42;96551.81;5135825;27;20403;-62
2023/10/19 07:15:13;;;;;;;6.82;3.75;;;;;;;24.65;35.10;96545.75;5135792;27;20116;-61
2023/10/19 07:17:41;;;;;;;8.85;4.55;;;;;;;24.69;35.27;96542.63;5135949;27;20039;-63
2023/10/19 07:20:21;;;;;;;8.70;4.95;;;;;;;24.95;35.38;96541.13;5135659;27;20039;-62
2023/10/19 07:22:49;;;;;;;8.45;3.70;;;;;;;25.27;35.31;96542.47;5135820;27;20458;-62
2023/10/19 07:25:20;;;;;;;12.10;4.28;;;;;;;25.47;34.63;96542.34;5135781;27;20062;-63
2023/10/19 07:27:49;;;;;;;8.55;4.80;;;;;;;25.49;33.99;96548.38;5135530;27;20039;-61
2023/10/19 07:30:21;;;;;;;5.55;4.60;;;;;;;25.41;33.98;96546.47;5135569;27;20092;-60
2023/10/19 07:32:54;;;;;;;9.05;5.45;;;;;;;25.32;34.12;96544.69;5135265;27;20084;-62
2023/10/19 07:35:22;;;;;;;7.82;4.63;;;;;;;25.32;32.86;96537.53;5135448;27;20036;-61
2023/10/19 07:37:50;;;;;;;9.68;5.45;;;;;;;25.24;34.57;96540.94;5135326;27;20054;-61
2023/10/19 07:40:17;;;;;;;5.10;4.50;;;;;;;25.03;34.10;96533.19;5135498;27;20070;-60
2023/10/19 07:42:45;;;;;;;8.30;4.82;;;;;;;24.80;34.68;96536.22;5135577;27;20058;-60
2023/10/19 07:45:12;;;;;;;6.00;4.28;;;;;;;24.63;34.84;96527.16;5135474;27;20084;-62
2023/10/19 07:47:42;;;;;;;6.95;4.85;;;;;;;24.58;35.10;96529.44;5135406;27;20039;-60
2023/10/19 07:50:15;;;;;;;4.85;4.15;;;;;;;24.36;36.09;96534.16;5135291;27;20393;-62
2023/10/19 07:52:43;;;;;;;6.68;4.38;;;;;;;24.09;36.29;96528.59;5135173;27;20054;-61
2023/10/19 07:55:11;;;;;;;5.25;4.03;;;;;;;23.79;36.98;96526.94;5135183;27;20397;-63
2023/10/19 07:57:40;;;;;;;4.63;4.10;;;;;;;23.55;38.01;96528.19;5135193;27;20051;-62
2023/10/19 08:00:09;;;;;;;6.03;4.40;;;;;;;23.15;37.69;96528.13;5134978;27;20446;-62
2023/10/19 08:02:37;;;;;;;7.80;5.40;;;;;;;22.94;38.82;96522.91;5134990;27;20049;-61
2023/10/19 08:05:07;;;;;;;5.72;4.50;;;;;;;22.76;38.37;96520.91;5134999;27;20043;-62
2023/10/19 08:07:36;;;;;;;5.85;4.20;;;;;;;22.55;39.25;96519.09;5134893;27;20043;-61
2023/10/19 08:10:05;;;;;;;5.55;3.90;;;;;;;22.25;39.64;96514.63;5134936;27;20047;-61
2023/10/19 08:12:33;;;;;;;9.23;5.00;;;;;;;22.06;40.90;96514.38;5134740;27;20047;-61
2023/10/19 08:15:00;;;;;;;9.88;4.78;;;;;;;22.13;40.21;96512.06;5134811;27;20043;-61
2023/10/19 08:17:27;;;;;;;7.93;5.00;;;;;;;21.66;41.20;96517.72;5134670;27;20044;-63
2023/10/19 08:19:54;;;;;;;12.82;5.00;;;;;;;21.49;42.01;96514.66;5134414;27;20050;-61
2023/10/19 08:22:23;;;;;;;8.27;5.10;;;;;;;21.14;41.08;96510.44;5134730;27;20487;-63
2023/10/19 08:24:51;;;;;;;10.25;5.60;;;;;;;20.53;42.69;96501.94;5134619;27;20058;-62
2023/10/19 08:27:18;;;;;;;8.27;5.57;;;;;;;20.01;43.24;96510.34;5134574;27;20047;-63
2023/10/19 08:29:47;;;;;;;9.57;5.10;;;;;;;19.12;44.15;96508.94;5134427;27;20058;-62
2023/10/19 08:32:16;;;;;;;8.65;4.90;;;;;;;18.94;46.35;96511.97;5134202;27;20055;-63
2023/10/19 08:34:43;;;;;;;9.32;5.43;;;;;;;18.75;46.55;96501.84;5134365;27;20051;-64
2023/10/19 08:37:13;;;;;;;9.85;5.35;;;;;;;18.65;46.33;96506.94;5134473;27;20047;-62
2023/10/19 08:39:43;;;;;;;8.30;5.45;;;;;;;18.49;46.91;96501.91;5134320;27;20130;-63
2023/10/19 08:42:11;;;;;;;11.43;6.15;;;;;;;18.38;47.60;96495.56;5134424;27;20482;-64
2023/10/19 08:44:39;;;;;;;10.82;6.18;;;;;;;18.34;48.00;96496.75;5134338;27;20488;-61
2023/10/19 08:47:08;;;;;;;10.75;5.80;;;;;;;18.25;47.36;96500.03;5134395;27;20054;-63
2023/10/19 08:49:36;;;;;;;7.72;5.50;;;;;;;18.28;48.42;96497.16;5134192;27;20044;-63
2023/10/19 08:52:06;;;;;;;9.65;6.35;;;;;;;18.36;47.78;96501.94;5134182;27;20039;-62
2023/10/19 08:54:34;;;;;;;11.90;5.40;;;;;;;18.29;48.08;96497.06;5133991;27;20405;-63
2023/10/19 08:57:03;;;;;;;16.95;6.25;;;;;;;18.43;47.17;96490.78;5134154;28;20096;-63
2023/10/19 08:59:31;;;;;;;11.13;4.90;;;;;;;18.42;46.99;96491.75;5134112;28;20427;-64
2023/10/19 09:02:02;;;;;;;11.93;5.53;;;;;;;18.31;47.63;96483.72;5133975;28;20096;-63
2023/10/19 09:04:29;;;;;;;8.93;5.47;;;;;;;18.40;47.45;96480.44;5134045;28;20047;-62
2023/10/19 09:06:57;;;;;;;7.65;5.43;;;;;;;18.51;47.24;96479.66;5133932;27;20097;-63
2023/10/19 09:09:25;;;;;;;12.95;5.72;;;;;;;18.66;46.92;96477.69;5133990;28;20047;-64
2023/10/19 09:11:54;;;;;;;17.10;5.50;;;;;;;18.81;48.63;96477.53;5134026;27;20412;-63
2023/10/19 09:14:33;;;;;;;10.77;6.45;;;;;;;18.86;47.58;96466.59;5133846;27;20047;-64
2023/10/19 09:17:03;;;;;;;11.52;6.10;;;;;;;18.92;48.01;96467.03;5133887;27;20084;-63
2023/10/19 09:19:38;;;;;;;11.40;5.70;;;;;;;19.07;47.91;96461.53;5136656;27;20047;-64
2023/10/19 09:22:07;;;;;;;9.95;5.35;;;;;;;19.02;47.45;96469.00;5138050;27;20370;-63
2023/10/19 09:24:35;;;;;;;9.25;4.55;;;;;;;19.14;46.61;96476.06;5138062;27;20493;-64
2023/10/19 09:27:04;;;;;;;8.23;4.82;;;;;;;19.17;44.12;96475.84;5138089;27;20046;-64
2023/10/19 09:29:32;;;;;;;4.55;3.35;;;;;;;19.07;45.01;96461.53;5137993;27;20058;-63
2023/10/19 09:32:03;;;;;;;10.25;4.68;;;;;;;19.09;46.02;96462.31;5137621;27;20545;-64
2023/10/19 09:34:32;;;;;;;8.25;4.88;;;;;;;19.36;45.76;96461.22;5137755;27;20500;-61
2023/10/19 09:37:01;;;;;;;10.98;5.25;;;;;;;19.45;46.04;96459.69;5137835;27;20075;-61
2023/10/19 09:39:34;;;;;;;5.90;4.20;;;;;;;19.42;45.04;96466.03;5137888;27;20112;-64
2023/10/19 09:42:05;;;;;;;7.22;4.43;;;;;;;19.39;45.90;96462.78;5137735;27;20068;-63
2023/10/19 09:44:40;;;;;;;8.02;4.82;;;;;;;19.19;45.30;96452.72;5137687;27;20050;-63
2023/10/19 09:47:12;;;;;;;11.65;4.85;;;;;;;19.21;46.29;96452.63;5137628;27;20047;-63
2023/10/19 09:49:40;;;;;;;15.00;5.40;;;;;;;19.25;44.38;96445.25;5137507;27;20092;-61
2023/10/19 09:52:09;;;;;;;9.98;5.03;;;;;;;18.86;45.19;96442.75;5137412;27;20054;-62
2023/10/19 09:54:47;;;;;;;9.27;4.40;;;;;;;18.73;46.09;96433.09;5137317;27;20051;-61
2023/10/19 09:57:22;;;;;;;8.85;4.60;;;;;;;18.85;45.21;96436.63;5137421;27;20047;-61
2023/10/19 10:00:07;;;;;;;7.40;4.63;;;;;;;18.92;46.67;96421.97;5137453;27;20054;-61
2023/10/19 10:02:34;;;;;;;9.70;4.32;;;;;;;18.94;46.97;96428.00;5137461;27;20047;-63
2023/10/19 10:05:04;;;;;;;5.82;4.20;;;;;;;19.15;46.47;96426.56;5137491;27;20071;-61
2023/10/19 10:07:31;;;;;;;5.13;3.95;;;;;;;19.14;46.20;96424.88;5137454;27;20039;-62
2023/10/19 10:09:59;;;;;;;5.15;3.80;;;;;;;19.27;45.79;96419.47;5137175;27;20047;-63
2023/10/19 10:12:28;;;;;;;5.68;3.33;;;;;;;19.27;42.97;96412.34;5137178;27;20480;-62
2023/10/19 10:15:03;;;;;;;6.20;4.70;;;;;;;19.39;45.80;96405.28;5136966;27;20078;-62
2023/10/19 10:17:33;;;;;;;7.05;3.85;;;;;;;19.53;45.62;96393.63;5137025;27;20507;-62
2023/10/19 10:20:18;;;;;;;;;;;;;;;19.67;45.87;96397.88;5137539;27;20050;-61
2023/10/19 10:22:47;;;;;;;5.63;4.20;;;;;;;19.70;44.00;96384.38;5136785;27;19923;-61
2023/10/19 10:25:27;;;;;;;6.07;3.97;;;;;;;19.79;44.48;96382.81;5136996;27;20047;-62
2023/10/19 10:27:55;;;;;;;6.07;4.60;;;;;;;19.77;45.83;96390.03;5136951;27;20051;-61
2023/10/19 10:30:24;;;;;;;6.60;4.47;;;;;;;19.63;44.20;96391.09;5135435;27;20088;-62
2023/10/19 10:32:55;;;;;;;5.38;4.40;;;;;;;19.76;44.55;96385.69;5136488;27;20079;-62
2023/10/19 10:35:56;;;;;;;6.00;4.10;;;;;;;19.58;45.18;96385.31;5136716;27;20092;-61
2023/10/19 10:38:23;;;;;;;6.88;4.53;;;;;;;19.74;44.85;96368.22;5136639;27;20570;-61
2023/10/19 10:40:51;;;;;;;4.95;4.15;;;;;;;19.74;45.16;96363.72;5136587;27;20059;-62
2023/10/19 10:43:21;;;;;;;8.52;4.38;;;;;;;19.67;44.39;96363.38;5136454;27;20043;-62
2023/10/19 10:45:50;;;;;;;5.43;4.25;;;;;;;19.45;45.09;96354.41;5136584;27;20043;-62
2023/10/19 10:48:18;;;;;;;7.13;3.85;;;;;;;18.85;45.69;96351.00;5136465;27;20103;-61
2023/10/19 10:50:46;;;;;;;6.75;4.13;;;;;;;18.94;45.61;96353.78;5136437;27;20043;-63
2023/10/19 10:53:15;;;;;;;5.85;3.60;;;;;;;19.11;43.88;96354.34;5136250;27;20492;-62
2023/10/19 10:55:42;;;;;;;5.50;3.42;;;;;;;19.10;44.38;96355.31;5136282;27;20043;-64
2023/10/19 10:58:09;;;;;;;5.13;4.00;;;;;;;19.02;44.76;96357.69;5136363;27;20553;-63
2023/10/19 11:00:44;;;;;;;8.43;4.35;;;;;;;18.69;45.66;96355.63;5136180;27;20078;-61
2023/10/19 11:03:13;;;;;;;5.55;4.30;;;;;;;18.73;45.96;96360.69;5136098;27;20132;-62
2023/10/19 11:05:41;;;;;;;6.85;4.47;;;;;;;18.70;46.10;96359.13;5136162;27;20051;-63
2023/10/19 11:08:13;;;;;;;7.13;5.07;;;;;;;18.63;46.69;96355.25;5136300;27;20058;-61
2023/10/19 11:10:45;;;;;;;10.55;4.07;;;;;;;18.61;46.60;96351.84;5136118;27;20103;-62
2023/10/19 11:13:14;;;;;;;8.48;4.40;;;;;;;18.67;46.99;96354.88;5135907;27;20047;-62
2023/10/19 11:15:50;;;;;;;7.10;4.15;;;;;;;18.65;45.15;96355.97;5135954;27;20050;-64
2023/10/19 11:18:32;;;;;;;5.45;4.28;;;;;;;18.65;46.24;96340.94;5135862;27;20411;-62
2023/10/19 11:21:04;;;;;;;6.22;4.80;;;;;;;18.75;45.73;96332.31;5135833;27;20046;-63
2023/10/19 11:23:39;;;;;;;9.35;4.78;;;;;;;18.76;46.18;96326.91;5135812;27;20051;-63
2023/10/19 11:26:06;;;;;;;9.20;5.53;;;;;;;18.73;46.81;96323.63;5135743;27;20471;-62
2023/10/19 11:28:34;;;;;;;10.43;5.07;;;;;;;18.65;47.67;96321.53;5135713;27;20104;-61
2023/10/19 11:31:14;;;;;;;7.78;5.50;;;;;;;18.64;46.33;96319.84;5135604;27;20059;-63
2023/10/19 11:33:44;;;;;;;7.45;5.57;;;;;;;18.50;46.48;96324.38;5135381;27;20138;-63
2023/10/19 11:36:12;;;;;;;9.70;6.10;;;;;;;18.33;47.03;96314.19;5135662;27;20126;-63
2023/10/19 11:38:43;;;;;;;8.25;5.70;;;;;;;18.21;47.86;96318.56;5135587;27;20043;-63
2023/10/19 11:41:12;;;;;;;9.00;5.90;;;;;;;18.24;47.71;96315.69;5135234;27;20472;-62
2023/10/19 11:43:40;;;;;;;13.38;5.90;;;;;;;18.36;48.16;96314.78;5135483;27;20488;-62
2023/10/19 11:46:07;;;;;;;7.97;5.68;;;;;;;18.35;48.79;96313.09;5135154;27;20043;-60
2023/10/19 11:48:37;;;;;;;9.05;5.55;;;;;;;18.28;46.85;96311.88;5135223;27;20430;-61
2023/10/19 11:51:05;;;;;;;7.53;5.07;;;;;;;18.23;47.28;96304.25;5135211;27;20377;-62